createdAt,value
2018-04-29T00:29:15.330Z,6
2018-04-29T00:39:11.580Z,8
2018-04-29T00:59:59.484Z,8
2018-04-29T01:09:11.515Z,8
2018-04-29T01:29:35.735Z,9
2018-04-29T01:39:11.515Z,9
2018-04-29T01:50:00.978Z,9
2018-04-29T01:59:11.988Z,10
2018-04-29T02:09:11.595Z,9
2018-04-29T02:19:49.027Z,10
2018-04-29T02:29:11.627Z,10
2018-04-29T02:49:11.637Z,9
2018-04-29T02:59:11.611Z,9
2018-04-29T03:19:11.615Z,10
2018-04-29T03:49:11.696Z,10
2018-04-29T03:59:11.627Z,10
2018-04-29T04:19:11.695Z,10
2018-04-29T04:29:29.346Z,11
2018-04-29T04:39:11.703Z,11
2018-04-29T04:49:11.679Z,11
2018-04-29T04:59:11.685Z,10
2018-04-29T05:09:11.698Z,10
2018-04-29T05:19:54.550Z,10
2018-04-29T05:29:19.234Z,11
2018-04-29T05:39:11.769Z,14
2018-04-29T05:49:11.773Z,13
2018-04-29T06:19:36.202Z,12
2018-04-29T06:29:11.786Z,11
2018-04-29T06:39:11.839Z,11
2018-04-29T07:19:11.885Z,8
2018-04-29T07:29:12.122Z,9
2018-04-29T07:39:11.906Z,8
2018-04-29T07:59:11.909Z,9
2018-04-29T08:09:12.024Z,8
2018-04-29T08:19:11.919Z,9
2018-04-29T08:29:31.954Z,9
2018-04-29T08:39:12.087Z,10
2018-04-29T08:49:17.265Z,9
2018-04-29T08:59:11.896Z,10
2018-04-29T09:29:12.006Z,10
2018-04-29T09:59:12.010Z,10
2018-04-29T10:19:12.010Z,8
2018-04-29T10:29:11.970Z,8
2018-04-29T10:39:11.956Z,8
2018-04-29T10:49:42.665Z,7
2018-04-29T10:59:11.973Z,7
2018-04-29T11:09:12.196Z,6
2018-04-29T11:39:30.643Z,5
2018-04-29T11:49:11.995Z,4
2018-04-29T11:59:12.619Z,4
2018-04-29T12:09:12.139Z,5
2018-04-29T12:19:13.063Z,4
2018-04-29T12:29:12.603Z,4
2018-04-29T12:39:12.831Z,4
2018-04-29T12:49:24.426Z,4
2018-04-29T12:59:12.287Z,3
2018-04-29T13:09:12.458Z,4
2018-04-29T13:19:12.431Z,3
2018-04-29T13:29:12.739Z,3
2018-04-29T13:39:12.081Z,3
2018-04-29T13:49:12.861Z,3
2018-04-29T13:59:12.328Z,2
2018-04-29T14:09:12.052Z,3
2018-04-29T14:19:12.167Z,2
2018-04-29T14:29:12.154Z,3
2018-04-29T14:39:12.127Z,3
2018-04-29T14:49:12.071Z,3
2018-04-29T14:59:12.254Z,3
2018-04-29T15:09:13.437Z,3
2018-04-29T15:19:12.376Z,3
2018-04-29T15:29:13.120Z,3
2018-04-29T15:39:12.089Z,3
2018-04-29T15:49:12.279Z,3
2018-04-29T15:59:12.049Z,3
2018-04-29T16:09:12.745Z,3
2018-04-29T16:19:12.117Z,3
2018-04-29T16:29:12.390Z,3
2018-04-29T16:39:12.177Z,3
2018-04-29T16:49:12.129Z,3
2018-04-29T16:59:12.088Z,3
2018-04-29T17:09:12.186Z,3
2018-04-29T17:19:12.180Z,3
2018-04-29T17:29:16.109Z,3
2018-04-29T17:39:13.216Z,3
2018-04-29T17:49:12.309Z,3
2018-04-29T17:59:12.478Z,4
2018-04-29T18:09:12.080Z,3
2018-04-29T18:19:12.126Z,4
2018-04-29T18:29:12.504Z,4
2018-04-29T18:39:12.269Z,4
2018-04-29T18:49:12.344Z,5
2018-04-29T18:59:12.089Z,5
2018-04-29T19:09:12.192Z,5
2018-04-29T19:19:12.468Z,4
2018-04-29T19:29:12.216Z,5
2018-04-29T19:39:12.735Z,5
2018-04-29T19:49:12.855Z,5
2018-04-29T19:59:12.179Z,5
2018-04-29T20:09:12.479Z,5
2018-04-29T20:19:12.355Z,5
2018-04-29T20:29:12.243Z,5
2018-04-29T20:39:12.135Z,5
2018-04-29T20:49:12.186Z,5
2018-04-29T20:59:12.197Z,6
2018-04-29T21:09:13.027Z,5
2018-04-29T21:19:12.122Z,6
2018-04-29T21:29:12.156Z,5
2018-04-29T21:39:12.076Z,6
2018-04-29T21:49:12.462Z,6
2018-04-29T21:59:12.377Z,6
2018-04-29T22:09:12.284Z,6
2018-04-29T22:19:28.064Z,7
2018-04-29T22:29:12.337Z,7
2018-04-29T22:39:12.502Z,7
2018-04-29T22:49:12.245Z,7
2018-04-29T22:59:12.285Z,11
2018-04-29T23:09:12.109Z,10
2018-04-29T23:19:12.237Z,10
2018-04-29T23:29:12.190Z,12
2018-04-29T23:39:12.209Z,15
2018-04-29T23:49:12.087Z,17
2018-04-29T23:59:12.497Z,18
